createdAt,value
2019-04-06T00:02:36.013Z,13.90
2019-04-06T00:05:08.714Z,15.53
2019-04-06T00:07:40.176Z,13.58
2019-04-06T00:10:12.246Z,14.25
2019-04-06T00:12:43.793Z,15.05
2019-04-06T00:15:15.727Z,15.15
2019-04-06T00:17:47.507Z,13.95
2019-04-06T00:20:18.977Z,15.13
2019-04-06T00:22:50.544Z,14.43
2019-04-06T00:25:22.042Z,14.83
2019-04-06T00:27:53.602Z,13.68
2019-04-06T00:30:25.150Z,14.40
2019-04-06T00:33:03.384Z,15.75
2019-04-06T00:35:34.955Z,14.70
2019-04-06T00:38:06.457Z,15.45
2019-04-06T00:40:38.059Z,15.20
2019-04-06T00:43:09.553Z,14.80
2019-04-06T00:45:41.020Z,12.45
2019-04-06T00:48:12.434Z,15.55
2019-04-06T00:50:43.655Z,15.85
2019-04-06T00:53:14.927Z,15.23
2019-04-06T00:55:55.150Z,15.05
2019-04-06T00:58:19.392Z,15.43
2019-04-06T01:00:51.990Z,14.58
2019-04-06T01:03:23.661Z,14.85
2019-04-06T01:05:55.330Z,14.00
2019-04-06T01:08:26.888Z,15.93
2019-04-06T01:10:58.537Z,15.50
2019-04-06T01:13:30.249Z,15.38
2019-04-06T01:16:02.252Z,15.78
2019-04-06T01:18:33.926Z,15.78
2019-04-06T01:21:05.565Z,15.72
2019-04-06T01:23:37.397Z,16.40
2019-04-06T01:26:08.921Z,17.17
2019-04-06T01:28:40.741Z,17.07
2019-04-06T01:31:12.424Z,16.82
2019-04-06T01:33:44.366Z,16.77
2019-04-06T01:36:16.148Z,15.95
2019-04-06T01:38:47.989Z,17.32
2019-04-06T01:41:19.740Z,17.45
2019-04-06T01:43:51.197Z,17.15
2019-04-06T01:46:22.831Z,18.12
2019-04-06T01:48:54.445Z,18.50
2019-04-06T01:51:26.063Z,17.12
2019-04-06T01:53:57.501Z,16.95
2019-04-06T01:56:29.950Z,17.85
2019-04-06T01:59:01.677Z,18.57
2019-04-06T02:01:37.414Z,19.00
2019-04-06T02:04:08.850Z,19.25
2019-04-06T02:06:40.595Z,17.98
2019-04-06T02:09:12.402Z,18.17
2019-04-06T02:11:44.062Z,18.60
2019-04-06T02:14:15.568Z,21.97
2019-04-06T02:16:47.175Z,19.10
2019-04-06T02:19:18.825Z,18.48
2019-04-06T02:21:50.332Z,19.85
2019-04-06T02:24:23.190Z,20.12
2019-04-06T02:26:54.856Z,19.27
2019-04-06T02:29:26.216Z,19.73
2019-04-06T02:32:15.328Z,19.82
2019-04-06T02:35:12.707Z,20.48
2019-04-06T02:38:00.635Z,20.10
2019-04-06T02:40:49.380Z,19.25
2019-04-06T02:43:29.342Z,19.87
2019-04-06T02:46:01.922Z,20.10
2019-04-06T02:48:33.731Z,21.12
2019-04-06T02:51:06.399Z,20.05
2019-04-06T02:53:38.220Z,20.15
2019-04-06T02:56:10.026Z,21.17
2019-04-06T02:58:41.641Z,20.95
2019-04-06T03:01:13.309Z,21.00
2019-04-06T03:03:44.912Z,20.75
2019-04-06T03:06:16.473Z,19.40
2019-04-06T03:08:48.483Z,20.57
2019-04-06T03:11:20.424Z,20.02
2019-04-06T03:13:52.250Z,21.60
2019-04-06T03:16:24.051Z,20.02
2019-04-06T03:18:55.555Z,19.27
2019-04-06T03:21:27.073Z,19.55
2019-04-06T03:23:58.338Z,20.80
2019-04-06T03:26:29.593Z,21.02
2019-04-06T03:29:01.325Z,20.15
2019-04-06T03:31:32.854Z,19.45
2019-04-06T03:34:04.326Z,20.02
2019-04-06T03:36:35.905Z,19.73
2019-04-06T03:39:08.496Z,19.25
2019-04-06T03:41:39.771Z,19.75
2019-04-06T03:44:11.367Z,20.25
2019-04-06T03:46:42.902Z,21.50
2019-04-06T03:49:14.520Z,20.77
2019-04-06T03:51:46.357Z,20.17
2019-04-06T03:54:18.132Z,20.27
2019-04-06T03:56:49.601Z,20.37
2019-04-06T03:59:21.308Z,21.65
2019-04-06T04:01:53.169Z,21.07
2019-04-06T04:04:24.547Z,21.37
2019-04-06T04:06:56.315Z,21.87
2019-04-06T04:09:27.671Z,21.40
2019-04-06T04:11:59.208Z,21.62
2019-04-06T04:14:30.530Z,21.75
2019-04-06T04:17:02.222Z,22.07
2019-04-06T04:19:34.225Z,22.35
2019-04-06T04:22:05.864Z,21.77
2019-04-06T04:24:37.552Z,21.68
2019-04-06T04:27:08.801Z,23.00
2019-04-06T04:29:40.328Z,22.05
2019-04-06T04:32:11.774Z,22.65
2019-04-06T04:34:43.169Z,20.82
2019-04-06T04:37:14.432Z,21.50
2019-04-06T04:39:45.830Z,23.38
2019-04-06T04:42:17.584Z,21.97
2019-04-06T04:44:49.046Z,22.45
2019-04-06T04:47:20.548Z,23.77
2019-04-06T04:49:51.997Z,22.85
2019-04-06T04:52:23.643Z,22.98
2019-04-06T04:54:54.962Z,22.05
2019-04-06T04:57:26.564Z,22.87
2019-04-06T04:59:58.108Z,23.20
2019-04-06T05:02:29.499Z,21.40
2019-04-06T05:05:00.836Z,23.35
2019-04-06T05:07:32.240Z,23.70
2019-04-06T05:10:03.684Z,24.60
2019-04-06T05:12:35.193Z,25.95
2019-04-06T05:15:10.160Z,22.45
2019-04-06T05:17:41.693Z,23.60
2019-04-06T05:20:13.614Z,24.77
2019-04-06T05:22:45.212Z,24.80
2019-04-06T05:25:16.668Z,25.90
2019-04-06T05:27:52.722Z,24.57
2019-04-06T05:30:21.162Z,26.68
2019-04-06T05:32:52.635Z,23.92
2019-04-06T05:35:24.153Z,23.62
2019-04-06T05:37:55.816Z,25.37
2019-04-06T05:40:27.237Z,24.55
2019-04-06T05:42:58.458Z,24.47
2019-04-06T05:45:29.740Z,23.55
2019-04-06T05:48:01.305Z,20.20
2019-04-06T05:50:32.658Z,22.25
2019-04-06T05:53:04.054Z,18.90
2019-04-06T05:55:35.530Z,23.30
2019-04-06T05:58:10.074Z,23.40
2019-04-06T06:00:41.241Z,20.57
2019-04-06T06:03:12.614Z,22.87
2019-04-06T06:05:44.237Z,24.30
2019-04-06T06:08:16.014Z,23.15
2019-04-06T06:10:47.438Z,22.52
2019-04-06T06:13:18.724Z,22.85
2019-04-06T06:15:50.076Z,22.02
2019-04-06T06:18:27.465Z,21.05
2019-04-06T06:20:54.982Z,22.32
2019-04-06T06:23:26.800Z,18.10
2019-04-06T06:25:58.471Z,22.42
2019-04-06T06:28:30.008Z,21.87
2019-04-06T06:31:03.923Z,21.77
2019-04-06T06:33:35.602Z,22.13
2019-04-06T06:36:07.539Z,21.20
2019-04-06T06:38:39.273Z,25.27
2019-04-06T06:41:10.856Z,21.75
2019-04-06T06:43:42.448Z,19.12
2019-04-06T06:46:14.159Z,20.50
2019-04-06T06:48:45.638Z,21.12
2019-04-06T06:51:17.339Z,21.93
2019-04-06T06:53:48.969Z,23.18
2019-04-06T06:56:20.566Z,24.57
2019-04-06T06:58:52.332Z,22.07
2019-04-06T07:01:24.144Z,21.60
2019-04-06T07:03:55.553Z,23.05
2019-04-06T07:06:26.976Z,20.68
2019-04-06T07:08:58.178Z,22.55
2019-04-06T07:11:29.652Z,17.42
2019-04-06T07:14:00.966Z,21.82
2019-04-06T07:16:32.336Z,21.55
2019-04-06T07:19:04.099Z,20.55
2019-04-06T07:21:36.065Z,19.67
2019-04-06T07:24:07.494Z,20.57
2019-04-06T07:26:41.180Z,18.67
2019-04-06T07:29:12.825Z,20.90
2019-04-06T07:31:44.159Z,20.12
2019-04-06T07:34:15.409Z,20.62
2019-04-06T07:36:46.707Z,20.85
2019-04-06T07:39:19.253Z,21.02
2019-04-06T07:41:50.753Z,19.73
2019-04-06T07:44:22.358Z,20.32
2019-04-06T07:46:53.729Z,21.53
2019-04-06T07:49:24.787Z,20.73
2019-04-06T07:51:56.199Z,20.07
2019-04-06T07:54:27.370Z,19.73
2019-04-06T07:56:58.757Z,19.93
2019-04-06T07:59:29.956Z,17.90
2019-04-06T08:02:01.526Z,20.02
2019-04-06T08:04:32.620Z,19.77
2019-04-06T08:07:03.838Z,22.60
2019-04-06T08:09:35.117Z,16.27
2019-04-06T08:12:06.499Z,21.13
2019-04-06T08:14:38.675Z,18.23
2019-04-06T08:17:09.845Z,18.23
2019-04-06T08:19:41.150Z,21.53
2019-04-06T08:22:12.342Z,18.50
2019-04-06T08:24:43.570Z,18.53
2019-04-06T08:27:14.911Z,18.23
2019-04-06T08:29:46.008Z,19.33
2019-04-06T08:32:17.605Z,19.10
2019-04-06T08:34:48.849Z,18.40
2019-04-06T08:37:20.104Z,18.83
2019-04-06T08:39:51.413Z,18.90
2019-04-06T08:42:22.651Z,19.47
2019-04-06T08:44:53.665Z,22.83
2019-04-06T08:47:24.749Z,19.70
2019-04-06T08:49:56.005Z,19.87
2019-04-06T08:52:27.197Z,22.63
2019-04-06T08:54:58.519Z,22.77
2019-04-06T08:57:29.926Z,19.00
2019-04-06T09:00:00.876Z,18.77
2019-04-06T09:02:32.289Z,19.47
2019-04-06T09:05:03.484Z,19.27
2019-04-06T09:07:34.772Z,21.93
2019-04-06T09:10:07.171Z,17.90
2019-04-06T09:12:38.421Z,19.13
2019-04-06T09:15:10.234Z,19.70
2019-04-06T09:17:41.723Z,18.47
2019-04-06T09:20:10.752Z,18.63
2019-04-06T09:22:42.284Z,18.23
2019-04-06T09:25:13.557Z,18.30
2019-04-06T09:27:44.874Z,19.53
2019-04-06T09:30:17.142Z,18.83
2019-04-06T09:32:48.462Z,20.07
2019-04-06T09:35:20.197Z,19.60
2019-04-06T09:37:51.291Z,18.23
2019-04-06T09:40:22.442Z,18.60
2019-04-06T09:42:53.959Z,18.27
2019-04-06T09:46:03.598Z,18.97
2019-04-06T09:48:48.081Z,18.13
2019-04-06T09:51:41.444Z,20.33
2019-04-06T09:54:35.724Z,17.50
2019-04-06T09:57:18.551Z,19.07
2019-04-06T10:00:04.200Z,17.77
2019-04-06T10:02:55.034Z,18.43
2019-04-06T10:05:32.783Z,18.87
2019-04-06T10:08:18.506Z,17.97
2019-04-06T10:11:21.270Z,18.73
2019-04-06T10:14:02.271Z,17.00
2019-04-06T10:17:03.787Z,17.30
2019-04-06T10:19:55.308Z,16.53
2019-04-06T10:22:35.950Z,16.80
2019-04-06T10:25:24.549Z,17.23
2019-04-06T10:28:26.671Z,16.23
2019-04-06T10:31:22.902Z,15.70
2019-04-06T10:34:22.072Z,16.90
2019-04-06T10:37:13.828Z,16.13
2019-04-06T10:40:06.771Z,16.17
2019-04-06T10:43:04.725Z,16.47
2019-04-06T10:46:06.916Z,19.87
2019-04-06T10:49:00.262Z,16.40
2019-04-06T10:51:41.330Z,14.77
2019-04-06T10:54:34.095Z,15.03
2019-04-06T10:57:23.052Z,17.30
2019-04-06T11:00:05.724Z,15.40
2019-04-06T11:03:03.335Z,15.40
2019-04-06T11:06:13.192Z,15.40
2019-04-06T11:09:10.025Z,15.40
2019-04-06T11:11:58.733Z,14.23
2019-04-06T11:14:44.426Z,16.07
2019-04-06T11:17:33.223Z,14.40
2019-04-06T11:20:29.787Z,13.13
2019-04-06T11:23:38.210Z,15.23
2019-04-06T11:26:34.316Z,14.87
2019-04-06T11:29:24.297Z,15.33
2019-04-06T11:32:20.329Z,14.70
2019-04-06T11:35:11.659Z,15.20
2019-04-06T11:38:16.839Z,14.67
2019-04-06T11:41:01.203Z,13.27
2019-04-06T11:44:09.522Z,12.60
2019-04-06T11:46:57.084Z,11.87
2019-04-06T11:49:41.471Z,11.37
2019-04-06T11:52:28.124Z,12.40
2019-04-06T11:55:13.570Z,11.87
2019-04-06T11:58:02.196Z,12.53
2019-04-06T12:00:50.627Z,12.57
2019-04-06T12:03:36.269Z,13.53
2019-04-06T12:06:35.413Z,12.50
2019-04-06T12:09:36.198Z,12.77
2019-04-06T12:12:23.951Z,13.50
2019-04-06T12:15:04.113Z,13.40
2019-04-06T12:18:03.642Z,12.87
2019-04-06T12:20:57.217Z,13.47
2019-04-06T12:23:47.074Z,14.03
2019-04-06T12:26:32.504Z,12.90
2019-04-06T12:29:17.465Z,12.40
2019-04-06T12:32:07.558Z,11.50
2019-04-06T12:34:56.523Z,11.13
2019-04-06T12:37:47.045Z,11.60
2019-04-06T12:40:31.543Z,12.73
2019-04-06T12:43:22.537Z,13.13
2019-04-06T12:46:15.693Z,12.20
2019-04-06T12:49:05.798Z,12.60
2019-04-06T12:51:53.068Z,12.40
2019-04-06T12:54:49.237Z,13.30
2019-04-06T12:57:51.615Z,12.77
2019-04-06T13:00:50.865Z,12.60
2019-04-06T13:03:32.712Z,11.93
2019-04-06T13:06:25.826Z,12.10
2019-04-06T13:09:16.018Z,11.77
2019-04-06T13:11:55.390Z,11.00
2019-04-06T13:14:50.035Z,12.63
2019-04-06T13:17:40.592Z,12.57
2019-04-06T13:20:49.551Z,12.63
2019-04-06T13:23:48.841Z,9.90
2019-04-06T13:26:41.775Z,11.13
2019-04-06T13:29:25.718Z,10.37
2019-04-06T13:32:16.013Z,12.23
2019-04-06T13:34:53.029Z,11.80
2019-04-06T13:37:44.819Z,11.33
2019-04-06T13:40:35.108Z,10.03
2019-04-06T13:43:16.642Z,10.63
2019-04-06T13:46:06.852Z,9.83
2019-04-06T13:49:02.821Z,11.70
2019-04-06T13:51:56.077Z,12.03
2019-04-06T13:54:46.531Z,12.50
2019-04-06T13:57:40.095Z,11.03
2019-04-06T14:00:25.331Z,12.77
2019-04-06T14:03:24.695Z,12.37
2019-04-06T14:06:30.072Z,11.90
2019-04-06T14:09:19.855Z,12.80
2019-04-06T14:11:56.810Z,12.93
2019-04-06T14:14:34.291Z,9.93
2019-04-06T14:17:24.731Z,14.13
2019-04-06T14:20:13.371Z,14.03
2019-04-06T14:23:03.336Z,14.13
2019-04-06T14:26:11.605Z,13.80
2019-04-06T14:29:00.527Z,12.20
2019-04-06T14:31:55.300Z,14.40
2019-04-06T14:34:54.837Z,13.73
2019-04-06T14:37:37.351Z,14.47
2019-04-06T14:40:35.013Z,15.40
2019-04-06T14:43:31.238Z,13.53
2019-04-06T14:46:21.440Z,13.20
2019-04-06T14:49:27.489Z,13.87
2019-04-06T14:52:15.430Z,14.07
2019-04-06T14:54:56.906Z,14.57
2019-04-06T14:57:40.891Z,14.07
2019-04-06T15:00:27.382Z,14.97
2019-04-06T15:03:29.733Z,14.07
2019-04-06T15:06:31.587Z,13.33
2019-04-06T15:09:22.131Z,14.40
2019-04-06T15:12:17.862Z,14.07
2019-04-06T15:15:19.826Z,12.57
2019-04-06T15:18:08.252Z,14.03
2019-04-06T15:20:52.320Z,14.53
2019-04-06T15:23:43.134Z,14.73
2019-04-06T15:26:43.053Z,13.70
2019-04-06T15:29:41.124Z,13.93
2019-04-06T15:32:37.218Z,13.50
2019-04-06T15:35:26.006Z,14.53
2019-04-06T15:38:14.804Z,9.77
2019-04-06T15:41:08.517Z,13.83
2019-04-06T15:43:53.461Z,15.23
2019-04-06T15:46:46.883Z,14.57
2019-04-06T15:49:29.329Z,13.40
2019-04-06T15:52:17.797Z,14.17
2019-04-06T15:55:02.884Z,13.97
2019-04-06T15:58:01.872Z,14.80
2019-04-06T16:00:55.004Z,15.43
2019-04-06T16:03:45.102Z,14.97
2019-04-06T16:06:31.569Z,14.40
2019-04-06T16:09:37.534Z,14.40
2019-04-06T16:12:29.284Z,15.10
2019-04-06T16:15:19.526Z,15.13
2019-04-06T16:18:07.240Z,15.30
2019-04-06T16:21:05.768Z,15.13
2019-04-06T16:24:10.113Z,16.07
2019-04-06T16:26:49.737Z,15.90
2019-04-06T16:29:54.823Z,15.90
2019-04-06T16:32:43.962Z,16.13
2019-04-06T16:35:34.447Z,17.00
2019-04-06T16:38:27.905Z,15.57
2019-04-06T16:41:24.048Z,16.37
2019-04-06T16:44:02.762Z,17.00
2019-04-06T16:47:07.550Z,16.27
2019-04-06T16:50:06.599Z,14.97
2019-04-06T16:52:47.124Z,18.07
2019-04-06T16:55:52.344Z,17.40
2019-04-06T16:58:41.095Z,17.63
2019-04-06T17:01:26.538Z,17.07
2019-04-06T17:04:06.920Z,17.53
2019-04-06T17:06:55.652Z,18.67
2019-04-06T17:09:45.774Z,19.33
2019-04-06T17:12:41.883Z,18.93
2019-04-06T17:15:41.489Z,18.63
2019-04-06T17:18:22.816Z,17.03
2019-04-06T17:21:13.030Z,19.77
2019-04-06T17:24:06.005Z,18.27
2019-04-06T17:27:02.061Z,18.33
2019-04-06T17:30:11.181Z,17.53
2019-04-06T17:33:05.613Z,14.40
2019-04-06T17:36:01.808Z,14.90
2019-04-06T17:38:45.318Z,17.20
2019-04-06T17:41:53.569Z,13.87
2019-04-06T17:44:41.688Z,18.47
2019-04-06T17:47:37.744Z,17.67
2019-04-06T17:50:25.007Z,17.37
2019-04-06T17:53:07.195Z,17.43
2019-04-06T17:56:03.486Z,18.57
2019-04-06T17:58:43.366Z,17.50
2019-04-06T18:01:32.176Z,17.83
2019-04-06T18:04:31.131Z,16.93
2019-04-06T18:07:31.128Z,17.37
2019-04-06T18:10:25.445Z,16.23
2019-04-06T18:13:11.339Z,16.57
2019-04-06T18:15:43.057Z,15.50
2019-04-06T18:18:14.208Z,16.47
2019-04-06T18:20:45.206Z,13.00
2019-04-06T18:23:16.506Z,15.63
2019-04-06T18:25:47.598Z,16.63
2019-04-06T18:28:18.720Z,17.43
2019-04-06T18:30:57.193Z,16.80
2019-04-06T18:33:28.495Z,16.20
2019-04-06T18:35:59.987Z,17.93
2019-04-06T18:38:43.269Z,17.20
2019-04-06T18:41:14.865Z,18.00
2019-04-06T18:43:46.236Z,17.90
2019-04-06T18:46:17.306Z,18.37
2019-04-06T18:48:48.640Z,17.43
2019-04-06T18:51:20.637Z,17.77
2019-04-06T18:53:52.942Z,17.23
2019-04-06T18:56:24.410Z,17.03
2019-04-06T18:58:55.537Z,16.17
2019-04-06T19:01:27.035Z,14.87
2019-04-06T19:03:57.981Z,17.37
2019-04-06T19:06:29.440Z,16.63
2019-04-06T19:09:00.791Z,18.17
2019-04-06T19:11:33.710Z,16.87
2019-04-06T19:14:04.919Z,16.83
2019-04-06T19:16:35.809Z,18.17
2019-04-06T19:19:06.782Z,13.47
2019-04-06T19:21:37.778Z,12.67
2019-04-06T19:24:08.875Z,17.67
2019-04-06T19:26:40.105Z,19.03
2019-04-06T19:29:11.177Z,17.40
2019-04-06T19:31:42.494Z,17.23
2019-04-06T19:34:13.903Z,16.97
2019-04-06T19:36:45.387Z,17.40
2019-04-06T19:39:16.959Z,18.17
2019-04-06T19:41:48.316Z,17.97
2019-04-06T19:44:20.629Z,17.07
2019-04-06T19:46:52.869Z,17.60
2019-04-06T19:49:24.139Z,18.13
2019-04-06T19:51:55.557Z,18.23
2019-04-06T19:54:27.923Z,19.23
2019-04-06T19:56:59.206Z,18.43
2019-04-06T19:59:30.672Z,21.90
2019-04-06T20:02:01.774Z,18.50
2019-04-06T20:04:32.878Z,16.03
2019-04-06T20:07:04.208Z,16.23
2019-04-06T20:09:35.585Z,17.90
2019-04-06T20:12:07.783Z,18.67
2019-04-06T20:14:39.422Z,18.17
2019-04-06T20:17:10.989Z,18.80
2019-04-06T20:19:42.222Z,18.33
2019-04-06T20:22:13.800Z,17.03
2019-04-06T20:24:45.576Z,18.10
2019-04-06T20:27:18.591Z,16.87
2019-04-06T20:29:49.773Z,17.13
2019-04-06T20:32:21.306Z,17.03
2019-04-06T20:34:52.471Z,17.67
2019-04-06T20:37:23.833Z,17.40
2019-04-06T20:39:54.855Z,17.23
2019-04-06T20:42:25.805Z,17.77
2019-04-06T20:44:57.181Z,18.47
2019-04-06T20:47:30.512Z,16.87
2019-04-06T20:50:01.801Z,17.70
2019-04-06T20:52:33.077Z,16.13
2019-04-06T20:55:06.349Z,17.02
2019-04-06T20:57:37.583Z,17.67
2019-04-06T21:00:10.156Z,17.60
2019-04-06T21:02:41.729Z,17.97
2019-04-06T21:05:13.753Z,16.90
2019-04-06T21:07:45.102Z,18.73
2019-04-06T21:10:16.469Z,16.90
2019-04-06T21:12:47.802Z,16.10
2019-04-06T21:15:21.167Z,17.73
2019-04-06T21:17:53.306Z,15.63
2019-04-06T21:20:24.664Z,15.15
2019-04-06T21:22:56.300Z,15.03
2019-04-06T21:25:27.627Z,18.67
2019-04-06T21:27:58.851Z,18.67
2019-04-06T21:30:30.021Z,17.87
2019-04-06T21:33:01.745Z,17.15
2019-04-06T21:35:34.534Z,16.67
2019-04-06T21:38:05.601Z,15.13
2019-04-06T21:40:37.358Z,15.20
2019-04-06T21:43:09.061Z,17.87
2019-04-06T21:45:40.951Z,16.90
2019-04-06T21:48:12.510Z,14.87
2019-04-06T21:50:44.166Z,17.57
2019-04-06T21:53:15.536Z,17.27
2019-04-06T21:55:47.165Z,16.63
2019-04-06T21:58:18.735Z,16.73
2019-04-06T22:00:55.686Z,14.27
2019-04-06T22:03:27.147Z,18.43
2019-04-06T22:05:58.285Z,17.73
2019-04-06T22:08:29.797Z,17.80
2019-04-06T22:11:01.729Z,17.93
2019-04-06T22:13:32.880Z,17.37
2019-04-06T22:16:04.453Z,17.45
2019-04-06T22:18:36.230Z,17.85
2019-04-06T22:21:08.101Z,19.23
2019-04-06T22:23:43.326Z,18.40
2019-04-06T22:26:12.566Z,18.20
2019-04-06T22:28:44.315Z,19.17
2019-04-06T22:31:16.463Z,17.57
2019-04-06T22:33:47.446Z,18.93
2019-04-06T22:36:18.948Z,18.67
2019-04-06T22:38:50.393Z,19.70
2019-04-06T22:41:21.895Z,17.80
2019-04-06T22:43:53.132Z,19.95
2019-04-06T22:46:25.174Z,19.17
2019-04-06T22:48:57.495Z,19.82
2019-04-06T22:51:28.880Z,18.90
2019-04-06T22:54:00.344Z,18.52
2019-04-06T22:56:31.710Z,18.03
2019-04-06T22:59:03.171Z,18.45
2019-04-06T23:01:37.349Z,18.05
2019-04-06T23:04:31.089Z,17.42
2019-04-06T23:07:12.195Z,16.95
2019-04-06T23:09:44.024Z,17.77
2019-04-06T23:12:15.565Z,18.42
2019-04-06T23:14:47.700Z,19.23
2019-04-06T23:17:19.622Z,18.62
2019-04-06T23:19:51.149Z,16.55
2019-04-06T23:22:22.680Z,18.30
2019-04-06T23:24:54.745Z,17.32
2019-04-06T23:27:26.400Z,18.55
2019-04-06T23:29:57.665Z,16.80
2019-04-06T23:32:29.597Z,17.73
2019-04-06T23:35:02.648Z,17.27
2019-04-06T23:37:34.250Z,16.57
2019-04-06T23:40:06.621Z,18.42
2019-04-06T23:42:37.960Z,18.60
2019-04-06T23:45:10.291Z,18.62
2019-04-06T23:47:41.713Z,17.80
2019-04-06T23:50:13.443Z,18.25
2019-04-06T23:52:45.145Z,18.57
2019-04-06T23:55:16.792Z,19.00
2019-04-06T23:57:48.401Z,17.75
